Brownsville, TX

6:16 PM CST on February 01, 2015 (GMT -0600)
Brownsville-South Padre I International | Change Station
CLOSE
Current Station
Airport
Location: Brownsville,
Elevation: 20 ft
Nearby Weather Stations

Elev 20 ft 25.91 °N, 97.42 °W | Updated 23 minutes ago

Partly Cloudy
Partly Cloudy
71 °F
Feels Like 71 °F
N
7
Wind Variable Wind from South

Today
High -- | Low -- °F
--% Chance of Precip.
Yesterday
High -- | Low -- °F
Precip. -- in
7:14 AM 6:13 PM
Waxing Gibbous, 96% visible
Pressure 29.91 in
Visibility 10.0 miles
Clouds Clear
Dew Point 60 °F
Humidity 68%
Rainfall 0.00 in
Snow Depth Not available.
UV 0 out of 12
Pollen 7.10 out of 12
Air Quality Not available.
Flu Activity Not available.
METAR KBRO 012353Z 17006KT 10SM CLR 22/16 A2991 RMK AO2 SLP126 T02170156 10261 20217 53010

More Conditions Fewer Conditions

Pressure 29.91 in
Visibility 10.0 miles
Clouds Clear
Dew Point 60 °F
Humidity 68%
Rainfall 0.00 in
Snow Depth Not available.
UV 0 out of 12
Pollen 7.10 out of 12
Air Quality Not available.
Flu Activity Not available.
METAR KBRO 012353Z 17006KT 10SM CLR 22/16 A2991 RMK AO2 SLP126 T02170156 10261 20217 53010

More Conditions Fewer Conditions

Nowcast | as of 6:07 PM CST on February 1, 2015

Through 9 PM...isolated showers will move to the northeast over areas along the Rio Grande...as well as the northern ranchlands. Precipitation amounts will generally be under a tenth of an inch.

×

10-Day Weather Forecast

Almanac

Astronomy

Feb. 01, 2015 Rise Set
Actual Time
Civil Twilight
Nautical Twilight
Astronomical Twilight
Moon
Length of Visible Light
Length of Day
Tomorrow will be .
, % of the Moon is Illuminated

Today's Extremes

State Highs State Lows

Community

WunderPhotos

Upload Photos

1,792,619 photos uploaded!

WunderBlogs® & News

Nearby

Air Quality

  Air Quality AQ Index Pollutant
Not available.

Snow Depth

Station Depth Elevation

Earthquake Activity

City Distance Mag. Time & Date
Minimum magnitude displayed is 2.5.

Coastal Water Temperatures

Place Temperature

Nearby Weather Stations